Time;durP1;ratioP1;P1;durP2;ratioP2;P2;SDS_P1;SDS_P2;PMS_P1;PMS_P2;Temp;Humidity;BMP_temperature;BMP_pressure;BME280_temperature;BME280_humidity;BME280_pressure;Samples;Min_cycle;Max_cycle;Signal;HPM_P1;HPM_P2
2021/03/15 00:01:21;;;;;;;31.77;19.77;;;;;;;3.91;77.76;98642.11;1780650;80;21229;-70
2021/03/15 00:03:49;;;;;;;31.93;20.08;;;;;;;3.90;77.85;98635.64;1764438;80;21197;-70
2021/03/15 00:06:16;;;;;;;33.75;20.95;;;;;;;4.02;77.57;98636.69;1785160;80;21162;-70
2021/03/15 00:08:43;;;;;;;35.92;21.73;;;;;;;4.02;77.58;98636.69;1772349;80;21198;-70
2021/03/15 00:11:13;;;;;;;29.52;18.80;;;;;;;3.94;77.79;98646.31;1782696;80;21181;-71
2021/03/15 00:13:42;;;;;;;29.80;18.37;;;;;;;3.95;77.85;98646.66;1765027;80;21170;-71
2021/03/15 00:16:10;;;;;;;33.95;19.42;;;;;;;4.10;77.46;98635.29;1790094;80;21159;-71
2021/03/15 00:18:38;;;;;;;32.90;20.25;;;;;;;4.09;77.52;98634.91;1779622;80;21304;-71
2021/03/15 00:21:07;;;;;;;29.82;17.98;;;;;;;4.03;77.57;98633.98;1788538;79;21611;-71
2021/03/15 00:23:35;;;;;;;29.30;17.07;;;;;;;4.03;77.59;98635.28;1784268;80;21185;-71
2021/03/15 00:26:02;;;;;;;33.20;19.60;;;;;;;4.18;77.24;98636.58;1769829;80;21765;-71
2021/03/15 00:28:29;;;;;;;33.25;20.25;;;;;;;4.17;77.22;98641.42;1791535;79;21202;-71
2021/03/15 00:30:56;;;;;;;32.40;19.70;;;;;;;4.10;77.38;98635.29;1776902;80;21602;-71
2021/03/15 00:33:24;;;;;;;30.95;18.37;;;;;;;4.04;77.43;98634.36;1776637;80;21166;-70
2021/03/15 00:35:52;;;;;;;34.65;19.98;;;;;;;4.16;77.17;98641.08;1768619;80;21230;-71
2021/03/15 00:38:19;;;;;;;33.25;20.25;;;;;;;4.19;77.04;98641.70;1767598;80;21658;-71
2021/03/15 00:40:47;;;;;;;35.25;20.70;;;;;;;4.12;77.15;98646.97;1776658;80;21205;-70
2021/03/15 00:43:14;;;;;;;32.30;19.42;;;;;;;4.05;77.32;98643.89;1789028;79;21162;-70
2021/03/15 00:45:43;;;;;;;33.53;19.70;;;;;;;4.14;77.13;98642.94;1773661;80;21186;-69
2021/03/15 00:48:10;;;;;;;33.10;19.65;;;;;;;4.23;76.95;98635.38;1790564;79;21578;-69
2021/03/15 00:50:42;;;;;;;37.48;21.77;;;;;;;4.17;77.09;98631.82;1786368;79;21193;-69
2021/03/15 00:53:14;;;;;;;33.05;20.12;;;;;;;4.10;77.24;98650.13;1771949;80;21138;-69
2021/03/15 00:55:41;;;;;;;36.55;20.55;;;;;;;4.13;77.19;98649.96;1786147;80;21200;-69
2021/03/15 00:58:10;;;;;;;35.88;21.85;;;;;;;4.23;76.96;98643.67;1792644;79;21174;-69
2021/03/15 01:00:39;;;;;;;39.53;21.35;;;;;;;4.18;77.14;98641.80;1785403;79;21170;-69
2021/03/15 01:03:12;;;;;;;36.15;21.73;;;;;;;4.10;77.34;98637.91;1780744;80;21180;-70
2021/03/15 01:05:48;;;;;;;35.15;20.32;;;;;;;4.10;77.38;98636.60;1777005;79;21197;-70
2021/03/15 01:08:42;;;;;;;34.95;21.48;;;;;;;4.28;77.01;98620.67;1819077;79;23057;-70
2021/03/15 01:11:11;;;;;;;37.98;23.15;;;;;;;4.13;77.16;98634.71;1791318;80;21305;-70
2021/03/15 01:13:40;;;;;;;37.00;20.45;;;;;;;4.03;77.42;98614.80;1792489;80;21143;-70
2021/03/15 01:16:09;;;;;;;35.58;20.65;;;;;;;4.04;77.42;98620.41;1792399;80;21150;-71
2021/03/15 01:18:37;;;;;;;39.10;22.48;;;;;;;4.16;77.10;98620.98;1792638;80;21169;-70
2021/03/15 01:21:04;;;;;;;38.45;23.12;;;;;;;4.13;77.14;98619.88;1792793;80;21549;-70
2021/03/15 01:23:32;;;;;;;37.42;20.97;;;;;;;4.05;77.31;98615.11;1792529;80;21202;-70
2021/03/15 01:25:59;;;;;;;33.45;20.23;;;;;;;4.04;77.34;98612.12;1792528;80;21166;-70
2021/03/15 01:28:26;;;;;;;37.70;21.97;;;;;;;4.16;77.12;98600.04;1792347;80;21151;-70
2021/03/15 01:30:53;;;;;;;40.38;23.25;;;;;;;4.12;77.23;98601.63;1792585;80;21201;-70
2021/03/15 01:33:21;;;;;;;36.75;20.92;;;;;;;4.03;77.50;98601.27;1792335;80;21175;-70
2021/03/15 01:35:48;;;;;;;38.08;21.75;;;;;;;4.02;77.58;98600.06;1792517;80;21560;-70
2021/03/15 01:38:17;;;;;;;43.92;23.70;;;;;;;4.10;77.43;98593.42;1792315;80;21188;-70
2021/03/15 01:40:44;;;;;;;43.98;24.25;;;;;;;4.04;77.60;98592.50;1792604;80;21142;-69
2021/03/15 01:43:11;;;;;;;37.63;20.97;;;;;;;3.96;77.84;98599.95;1792561;80;21208;-68
2021/03/15 01:45:40;;;;;;;41.50;23.70;;;;;;;3.98;77.82;98605.95;1792431;80;21143;-68
2021/03/15 01:48:12;;;;;;;42.05;23.60;;;;;;;4.09;77.57;98608.75;1792387;80;21214;-69
2021/03/15 01:50:43;;;;;;;41.65;23.95;;;;;;;4.05;77.69;98607.27;1792592;80;21172;-68
2021/03/15 01:53:12;;;;;;;41.15;21.97;;;;;;;3.97;77.88;98614.73;1792592;80;21155;-69
2021/03/15 01:55:39;;;;;;;38.38;23.10;;;;;;;3.99;77.82;98608.95;1792432;80;21182;-69
2021/03/15 01:58:07;;;;;;;43.60;24.07;;;;;;;4.10;77.56;98616.98;1790735;80;21158;-69
2021/03/15 02:00:34;;;;;;;44.03;25.30;;;;;;;4.04;77.70;98610.81;1761206;81;21158;-69
2021/03/15 02:03:05;;;;;;;41.25;23.47;;;;;;;3.98;77.86;98611.63;1761428;81;21639;-69
2021/03/15 02:05:36;;;;;;;39.95;23.98;;;;;;;4.02;77.85;98611.84;1761278;81;21163;-69
2021/03/15 02:08:05;;;;;;;44.80;25.60;;;;;;;4.15;77.58;98615.84;1753226;81;21663;-69
2021/03/15 02:10:33;;;;;;;45.60;25.57;;;;;;;4.10;77.74;98618.28;1748370;82;21202;-70
2021/03/15 02:13:06;;;;;;;43.15;23.05;;;;;;;4.00;77.91;98609.30;1748298;82;21560;-69
2021/03/15 02:16:02;;;;;;;40.33;22.77;;;;;;;4.06;78.01;98622.48;1748563;82;21135;-70
2021/03/15 02:18:56;;;;;;;45.38;24.07;;;;;;;4.20;77.65;98627.69;1748034;82;21595;-69
2021/03/15 02:21:56;;;;;;;42.67;23.80;;;;;;;4.17;77.67;98629.66;1747682;82;21139;-70
2021/03/15 02:24:50;;;;;;;45.20;23.22;;;;;;;4.07;77.96;98630.23;1747520;82;21163;-69
2021/03/15 02:27:55;;;;;;;42.88;24.52;;;;;;;4.10;77.94;98631.37;1746286;82;21689;-70
2021/03/15 02:30:58;;;;;;;43.95;23.83;;;;;;;4.17;77.86;98646.66;1747533;82;21293;-69
2021/03/15 02:34:03;;;;;;;44.37;23.63;;;;;;;4.03;78.16;98637.04;1711158;82;21167;-70
2021/03/15 02:38:59;;;;;;;50.30;26.12;;;;;;;4.09;78.12;98627.06;1780284;79;22908;-70
2021/03/15 02:41:27;;;;;;;50.10;25.92;;;;;;;3.97;78.36;98627.80;1748372;81;21167;-70
2021/03/15 02:43:57;;;;;;;47.45;25.30;;;;;;;3.91;78.61;98624.25;1752953;82;21179;-70
2021/03/15 02:46:26;;;;;;;45.50;24.32;;;;;;;3.95;78.61;98624.43;1748193;81;21166;-70
2021/03/15 02:48:57;;;;;;;54.67;26.95;;;;;;;4.08;78.35;98626.69;1752908;82;21139;-70
2021/03/15 02:51:27;;;;;;;52.78;27.13;;;;;;;4.05;78.52;98620.80;1752870;82;21164;-70
2021/03/15 02:53:55;;;;;;;40.92;22.90;;;;;;;3.99;78.76;98610.25;1724061;82;21220;-71
2021/03/15 02:56:26;;;;;;;51.98;26.42;;;;;;;4.06;78.64;98614.15;1753090;82;21174;-70
2021/03/15 02:58:57;;;;;;;54.53;27.50;;;;;;;4.14;78.50;98614.16;1739995;82;21186;-70
2021/03/15 03:01:24;;;;;;;56.77;28.10;;;;;;;4.04;78.77;98602.95;1694826;83;21309;-70
2021/03/15 03:03:53;;;;;;;50.98;25.95;;;;;;;3.96;79.05;98601.75;1723553;83;21175;-70
2021/03/15 03:06:22;;;;;;;54.50;26.37;;;;;;;4.07;78.85;98593.60;1723739;83;21190;-70
2021/03/15 03:08:51;;;;;;;57.73;29.60;;;;;;;4.10;78.86;98593.88;1724118;82;21332;-70
2021/03/15 03:11:20;;;;;;;60.52;29.30;;;;;;;4.04;79.10;98583.34;1724048;83;21158;-70
2021/03/15 03:13:49;;;;;;;54.53;27.58;;;;;;;3.99;79.30;98588.02;1723201;82;21191;-69
2021/03/15 03:16:18;;;;;;;54.05;26.90;;;;;;;4.07;79.10;98596.22;1722923;82;21154;-69
2021/03/15 03:18:48;;;;;;;59.63;28.73;;;;;;;4.14;78.90;98606.30;1723116;83;21202;-69
2021/03/15 03:21:16;;;;;;;59.88;27.25;;;;;;;4.05;79.03;98607.71;1723084;83;21131;-69
2021/03/15 03:23:44;;;;;;;50.78;26.68;;;;;;;3.98;79.16;98604.64;1723306;83;21127;-69
2021/03/15 03:26:11;;;;;;;60.05;29.30;;;;;;;4.07;78.97;98605.85;1722961;83;21174;-69
2021/03/15 03:28:38;;;;;;;63.85;29.77;;;;;;;4.04;79.09;98606.88;1723066;82;21174;-69
2021/03/15 03:31:06;;;;;;;58.42;29.52;;;;;;;3.96;79.41;98615.66;1723130;83;21155;-69
2021/03/15 03:33:35;;;;;;;55.98;26.93;;;;;;;3.94;79.51;98597.92;1723207;83;21619;-70
2021/03/15 03:36:05;;;;;;;51.53;24.95;;;;;;;4.05;79.26;98599.41;1723232;83;21107;-70
2021/03/15 03:38:34;;;;;;;65.28;30.88;;;;;;;4.02;79.37;98603.52;1722634;83;21316;-69
2021/03/15 03:41:01;;;;;;;56.15;27.37;;;;;;;3.93;79.66;98604.08;1724145;83;21171;-69
2021/03/15 03:43:28;;;;;;;51.48;27.07;;;;;;;3.98;79.65;98611.19;1723803;83;21292;-69
2021/03/15 03:45:55;;;;;;;57.95;28.05;;;;;;;4.12;79.26;98616.88;1723817;83;21202;-70
2021/03/15 03:48:22;;;;;;;62.80;30.08;;;;;;;4.10;79.29;98626.13;1723888;83;21590;-68
2021/03/15 03:50:50;;;;;;;53.60;26.12;;;;;;;4.04;79.44;98624.34;1723574;83;21318;-68
2021/03/15 03:53:26;;;;;;;55.67;27.00;;;;;;;4.00;79.48;98619.76;1723293;83;21187;-69
2021/03/15 03:56:13;;;;;;;64.00;29.00;;;;;;;4.12;79.16;98624.72;1723288;83;21111;-69
2021/03/15 03:58:47;;;;;;;61.18;29.45;;;;;;;4.12;79.21;98623.41;1723330;82;21309;-68
2021/03/15 04:01:14;;;;;;;57.23;28.40;;;;;;;4.02;79.46;98618.38;1723343;83;21151;-69
2021/03/15 04:03:48;;;;;;;54.93;27.50;;;;;;;4.02;79.56;98629.67;1723158;83;21203;-69
2021/03/15 04:06:15;;;;;;;62.78;31.00;;;;;;;4.14;79.29;98625.45;1723372;83;21167;-70
2021/03/15 04:08:56;;;;;;;68.05;31.05;;;;;;;4.09;79.42;98636.22;1720000;83;21643;-69
2021/03/15 04:11:24;;;;;;;57.53;28.23;;;;;;;4.02;79.65;98629.67;1723230;83;21131;-69
2021/03/15 04:13:52;;;;;;;62.80;29.07;;;;;;;4.05;79.68;98636.49;1723188;83;21175;-70
2021/03/15 04:16:28;;;;;;;66.67;30.02;;;;;;;4.13;79.43;98636.87;1723118;83;21123;-70
2021/03/15 04:18:56;;;;;;;67.85;29.95;;;;;;;4.07;79.63;98648.55;1723158;83;21634;-70
2021/03/15 04:21:26;;;;;;;65.90;28.75;;;;;;;4.00;79.90;98652.45;1723325;83;21183;-69
2021/03/15 04:23:54;;;;;;;62.98;29.87;;;;;;;4.08;79.71;98648.92;1723378;83;21186;-70
2021/03/15 04:26:22;;;;;;;69.05;31.37;;;;;;;4.16;79.56;98658.09;1723302;83;21175;-69
2021/03/15 04:28:50;;;;;;;63.30;29.35;;;;;;;4.09;79.78;98649.30;1723255;83;21187;-70
2021/03/15 04:31:17;;;;;;;64.42;30.88;;;;;;;4.01;80.07;98647.61;1723194;83;21182;-69
2021/03/15 04:33:44;;;;;;;59.42;29.40;;;;;;;3.99;80.15;98645.56;1723233;83;21596;-70
2021/03/15 04:36:14;;;;;;;70.83;32.03;;;;;;;4.12;79.93;98650.89;1723138;83;21200;-69
2021/03/15 04:38:42;;;;;;;71.33;32.23;;;;;;;4.09;79.99;98651.92;1714502;83;21201;-70
2021/03/15 04:41:09;;;;;;;64.60;30.62;;;;;;;4.04;80.25;98664.89;1709738;83;21310;-70
2021/03/15 04:43:38;;;;;;;68.05;32.23;;;;;;;4.05;80.32;98662.20;1709558;84;21293;-70
2021/03/15 04:46:06;;;;;;;75.72;35.20;;;;;;;4.24;79.98;98661.06;1709754;84;21718;-70
2021/03/15 04:48:36;;;;;;;67.62;32.90;;;;;;;4.26;79.91;98667.05;1709563;84;22120;-70
2021/03/15 04:51:05;;;;;;;78.55;34.13;;;;;;;4.19;80.08;98669.66;1688654;84;21191;-70
2021/03/15 04:53:34;;;;;;;71.85;34.80;;;;;;;4.15;80.24;98681.27;1709576;84;21313;-70
2021/03/15 04:56:06;;;;;;;74.27;33.90;;;;;;;4.28;79.99;98672.19;1689495;84;21187;-70
2021/03/15 04:58:33;;;;;;;80.80;35.25;;;;;;;4.36;79.71;98673.40;1709784;82;21620;-71
2021/03/15 05:01:02;;;;;;;81.97;35.92;;;;;;;4.31;79.93;98671.53;1710002;84;21147;-70
2021/03/15 05:03:29;;;;;;;82.80;35.75;;;;;;;4.24;80.10;98672.36;1709784;84;21155;-70
2021/03/15 05:05:56;;;;;;;83.12;36.08;;;;;;;4.25;80.11;98675.84;1709807;84;21159;-70
2021/03/15 05:08:28;;;;;;;78.47;35.30;;;;;;;4.42;79.69;98676.95;1709888;84;21184;-70
2021/03/15 05:10:55;;;;;;;97.45;37.85;;;;;;;4.41;79.77;98680.50;1709276;84;21313;-70
2021/03/15 05:13:23;;;;;;;83.80;37.40;;;;;;;4.36;80.09;98676.02;1689483;84;21636;-70
2021/03/15 05:15:50;;;;;;;95.67;42.75;;;;;;;4.34;80.21;98677.88;1704872;84;21250;-70
2021/03/15 05:18:17;;;;;;;107.03;45.25;;;;;;;4.49;79.82;98675.23;1700391;84;21622;-70
2021/03/15 05:20:45;;;;;;;108.67;43.92;;;;;;;4.53;79.76;98687.22;1693752;84;21623;-69
2021/03/15 05:23:12;;;;;;;100.87;42.10;;;;;;;4.47;79.97;98677.13;1709765;83;21321;-70
2021/03/15 05:25:44;;;;;;;89.97;39.25;;;;;;;4.42;80.11;98686.11;1696204;84;21199;-70
2021/03/15 05:28:12;;;;;;;88.27;38.63;;;;;;;4.46;80.05;98680.19;1694274;84;21314;-70
2021/03/15 05:30:40;;;;;;;77.72;35.68;;;;;;;4.62;79.69;98684.02;1689785;84;21627;-70
2021/03/15 05:33:15;;;;;;;83.33;35.38;;;;;;;4.61;79.70;98687.56;1681124;85;21156;-70
2021/03/15 05:35:43;;;;;;;79.07;36.17;;;;;;;4.55;79.90;98686.64;1683185;84;21154;-69
2021/03/15 05:38:11;;;;;;;75.15;35.35;;;;;;;4.53;80.04;98684.60;1683664;84;21637;-70
2021/03/15 05:40:40;;;;;;;74.58;35.83;;;;;;;4.55;79.98;98682.71;1690609;83;21202;-69
2021/03/15 05:43:30;;;;;;;88.47;37.25;;;;;;;4.72;79.61;98687.73;1713443;83;21135;-70
2021/03/15 05:46:29;;;;;;;91.75;39.38;;;;;;;4.74;79.66;98688.49;1712052;83;21707;-70
2021/03/15 05:49:31;;;;;;;73.67;34.92;;;;;;;4.69;79.94;98694.94;1713968;83;21305;-70
2021/03/15 05:52:09;;;;;;;75.92;35.65;;;;;;;4.69;79.99;98687.94;1715302;83;21227;-70
2021/03/15 05:55:14;;;;;;;87.88;39.48;;;;;;;4.86;79.59;98686.86;1715989;83;21147;-70
2021/03/15 05:58:06;;;;;;;94.52;41.00;;;;;;;4.85;79.65;98695.66;1701851;83;21605;-71
2021/03/15 06:00:51;;;;;;;97.22;37.25;;;;;;;4.78;79.84;98704.00;1697175;83;21200;-70
2021/03/15 06:03:32;;;;;;;111.92;41.70;;;;;;;4.84;79.77;98701.00;1696122;83;21644;-70
2021/03/15 06:06:02;;;;;;;110.05;43.05;;;;;;;4.96;79.45;98696.75;1706523;83;21264;-70
2021/03/15 06:08:31;;;;;;;102.25;39.83;;;;;;;4.92;79.59;98702.64;1688691;85;21155;-70
2021/03/15 06:11:16;;;;;;;72.85;33.90;;;;;;;4.90;79.66;98701.92;1704019;83;21147;-70
2021/03/15 06:13:43;;;;;;;65.15;31.07;;;;;;;4.88;79.73;98699.86;1717385;83;21750;-70
2021/03/15 06:16:10;;;;;;;63.30;31.20;;;;;;;5.08;79.22;98709.07;1717617;83;21123;-70
2021/03/15 06:18:38;;;;;;;53.63;25.25;;;;;;;5.11;78.88;98707.55;1717514;83;21131;-70
2021/03/15 06:21:10;;;;;;;65.35;31.70;;;;;;;4.96;78.88;98705.44;1717598;83;21647;-70
2021/03/15 06:23:38;;;;;;;59.95;29.42;;;;;;;4.79;79.26;98714.86;1696734;83;21170;-70
2021/03/15 06:26:07;;;;;;;64.87;31.00;;;;;;;4.76;79.40;98718.03;1712349;83;21650;-71
2021/03/15 06:28:35;;;;;;;58.42;28.12;;;;;;;4.91;79.05;98708.81;1701421;83;21100;-71
2021/03/15 06:31:02;;;;;;;68.17;34.35;;;;;;;4.96;78.94;98708.05;1695259;83;21195;-71
2021/03/15 06:33:29;;;;;;;77.92;35.98;;;;;;;4.85;79.14;98716.61;1692928;83;21706;-72
2021/03/15 06:36:00;;;;;;;75.57;33.42;;;;;;;4.81;79.40;98699.86;1715415;83;21135;-71
2021/03/15 06:38:28;;;;;;;72.08;33.53;;;;;;;4.81;79.41;98707.72;1714245;83;21631;-71
2021/03/15 06:41:03;;;;;;;70.40;33.38;;;;;;;4.87;79.32;98699.48;1692147;83;21188;-69
2021/03/15 06:43:30;;;;;;;69.75;32.45;;;;;;;5.07;78.90;98701.66;1683642;84;21156;-70
2021/03/15 06:45:58;;;;;;;68.80;34.98;;;;;;;5.08;78.95;98706.45;1681339;85;21333;-70
2021/03/15 06:48:26;;;;;;;71.22;33.55;;;;;;;5.02;79.06;98714.22;1681383;84;21225;-72
2021/03/15 06:50:55;;;;;;;66.65;32.40;;;;;;;5.03;79.27;98711.97;1700786;84;21710;-71
2021/03/15 06:53:23;;;;;;;71.47;34.15;;;;;;;5.16;78.95;98705.47;1686158;84;21190;-70
2021/03/15 06:55:53;;;;;;;68.15;33.38;;;;;;;5.34;78.64;98712.60;1682954;84;21167;-70
2021/03/15 06:58:29;;;;;;;65.10;30.52;;;;;;;5.36;78.55;98705.97;1681291;85;21742;-69
2021/03/15 07:01:22;;;;;;;68.10;33.53;;;;;;;5.34;78.66;98702.11;1681512;84;21207;-70
2021/03/15 07:03:51;;;;;;;;;;;;;;;5.30;78.74;98708.51;1690519;84;21171;-70
2021/03/15 07:06:19;;;;;;;75.60;34.78;;;;;;;5.38;78.43;98708.86;1696685;83;20955;-70
2021/03/15 07:08:47;;;;;;;66.00;32.55;;;;;;;5.46;78.11;98706.19;1690151;84;21639;-71
2021/03/15 07:11:20;;;;;;;71.00;33.30;;;;;;;5.41;78.12;98698.64;1687934;84;21143;-70
2021/03/15 07:13:47;;;;;;;69.35;30.57;;;;;;;5.37;78.35;98698.00;1693721;84;21218;-71
2021/03/15 07:16:30;;;;;;;69.82;32.95;;;;;;;5.38;78.29;98694.44;1684908;84;21134;-70
2021/03/15 07:19:02;;;;;;;72.10;34.85;;;;;;;5.43;78.06;98695.91;1705926;84;21155;-70
2021/03/15 07:21:38;;;;;;;68.05;33.25;;;;;;;5.62;77.51;98692.91;1680989;85;21329;-70
2021/03/15 07:24:10;;;;;;;71.82;35.65;;;;;;;5.60;77.45;98693.02;1685674;84;21330;-70
2021/03/15 07:26:43;;;;;;;77.08;35.25;;;;;;;5.53;77.68;98689.94;1702092;84;21163;-70
2021/03/15 07:29:16;;;;;;;71.40;32.45;;;;;;;5.54;77.70;98686.87;1709612;84;21738;-70
2021/03/15 07:31:55;;;;;;;65.90;36.70;;;;;;;5.67;77.50;98678.53;1796407;79;28216;-71
2021/03/15 07:34:23;;;;;;;60.43;33.18;;;;;;;5.99;76.81;98687.34;1786071;78;21115;-70
2021/03/15 07:36:59;;;;;;;59.10;32.40;;;;;;;6.25;75.85;98689.95;1790843;80;21163;-71
2021/03/15 07:39:28;;;;;;;58.80;31.42;;;;;;;6.23;75.82;98689.23;1790589;80;21155;-70
2021/03/15 07:42:01;;;;;;;57.45;31.27;;;;;;;6.20;75.58;98690.75;1726113;83;21167;-72
2021/03/15 07:44:34;;;;;;;54.25;28.98;;;;;;;6.17;75.53;98692.28;1726450;82;21167;-70
2021/03/15 07:47:05;;;;;;;60.55;31.52;;;;;;;6.32;75.20;98696.47;1715703;83;21627;-69
2021/03/15 07:49:37;;;;;;;57.58;29.65;;;;;;;6.36;75.09;98703.18;1748390;81;21272;-70
2021/03/15 07:52:06;;;;;;;62.58;32.75;;;;;;;6.28;75.12;98696.78;1720962;82;21332;-68
2021/03/15 07:54:36;;;;;;;64.20;32.53;;;;;;;5.87;75.31;98644.84;1734193;82;21187;-69
2021/03/15 07:57:27;;;;;;;64.05;31.97;;;;;;;6.11;75.45;98690.08;1751821;82;21624;-70
2021/03/15 07:59:57;;;;;;;69.80;35.10;;;;;;;6.26;75.20;98679.83;1709570;83;21150;-70
2021/03/15 08:02:28;;;;;;;72.90;33.70;;;;;;;6.34;75.01;98680.14;1702387;84;21139;-69
2021/03/15 08:04:57;;;;;;;64.47;32.42;;;;;;;6.31;75.13;98682.97;1708438;83;21544;-71
2021/03/15 08:07:26;;;;;;;62.15;29.92;;;;;;;6.30;75.25;98685.70;1712691;83;21345;-69
2021/03/15 08:09:56;;;;;;;67.25;32.08;;;;;;;6.27;75.35;98690.70;1703596;83;21308;-69
2021/03/15 08:12:36;;;;;;;64.65;29.65;;;;;;;6.33;75.23;98690.27;1707943;83;21167;-69
2021/03/15 08:15:11;;;;;;;69.37;34.00;;;;;;;6.45;74.88;98702.19;1696068;83;21314;-72
2021/03/15 08:17:45;;;;;;;75.00;35.65;;;;;;;6.38;74.93;98696.50;1688284;83;21687;-71
2021/03/15 08:20:14;;;;;;;84.77;36.90;;;;;;;6.25;75.08;98696.52;1699997;83;21157;-70
2021/03/15 08:22:43;;;;;;;69.60;34.33;;;;;;;6.06;75.39;98697.80;1720107;82;21167;-71
2021/03/15 08:25:12;;;;;;;63.80;32.13;;;;;;;6.13;75.41;98698.70;1735519;82;21191;-71
2021/03/15 08:27:41;;;;;;;54.42;26.40;;;;;;;6.08;75.49;98691.61;1713301;82;21622;-70
2021/03/15 08:30:18;;;;;;;56.10;27.98;;;;;;;5.84;76.06;98689.67;1707737;83;21606;-71
2021/03/15 08:32:48;;;;;;;52.48;28.23;;;;;;;5.60;76.51;98694.33;1756979;80;21766;-71
2021/03/15 08:35:16;;;;;;;53.63;27.25;;;;;;;5.70;76.57;98702.41;1738843;80;21701;-70
2021/03/15 08:38:00;;;;;;;52.90;29.02;;;;;;;5.78;76.51;98697.95;1747895;82;21155;-71
2021/03/15 08:40:49;;;;;;;54.93;28.15;;;;;;;5.77;76.54;98700.20;1746662;80;21146;-70
2021/03/15 08:43:25;;;;;;;54.65;27.90;;;;;;;5.74;76.67;98694.23;1739084;82;21120;-69
2021/03/15 08:46:12;;;;;;;56.00;29.95;;;;;;;5.82;76.51;98688.92;1745929;81;21155;-70
2021/03/15 08:48:48;;;;;;;62.67;31.68;;;;;;;5.92;76.34;98691.32;1768535;81;21161;-71
2021/03/15 08:51:37;;;;;;;53.50;29.52;;;;;;;5.84;76.54;98693.61;1753689;81;21180;-72
2021/03/15 08:54:08;;;;;;;53.15;27.58;;;;;;;5.79;76.60;98690.45;1757207;81;21592;-70
2021/03/15 08:56:37;;;;;;;53.33;28.98;;;;;;;5.76;76.87;98705.11;1747899;81;21265;-70
2021/03/15 08:59:09;;;;;;;46.55;24.50;;;;;;;5.91;76.59;98704.89;1753876;81;21628;-70
2021/03/15 09:01:56;;;;;;;41.53;21.62;;;;;;;6.04;76.31;98702.30;1770242;81;21190;-71
2021/03/15 09:04:34;;;;;;;52.60;27.55;;;;;;;5.93;76.50;98704.78;1749031;81;21273;-69
2021/03/15 09:07:04;;;;;;;50.08;25.12;;;;;;;5.77;76.89;98697.58;1747116;81;21174;-70
2021/03/15 09:09:33;;;;;;;48.50;24.65;;;;;;;5.72;77.15;98701.84;1746525;80;21171;-70
2021/03/15 09:12:02;;;;;;;58.98;29.15;;;;;;;5.81;76.98;98699.08;1760632;81;21214;-70
2021/03/15 09:14:35;;;;;;;63.85;29.48;;;;;;;5.93;76.76;98689.04;1744324;81;21127;-70
2021/03/15 09:17:20;;;;;;;59.27;28.17;;;;;;;5.94;76.91;98685.48;1741133;82;21197;-70
2021/03/15 09:19:50;;;;;;;60.92;29.40;;;;;;;5.97;77.01;98695.78;1749983;80;21606;-70
2021/03/15 09:22:30;;;;;;;58.40;30.37;;;;;;;5.96;76.93;98686.22;1717775;83;21147;-70
2021/03/15 09:25:01;;;;;;;61.53;29.70;;;;;;;6.13;76.47;98694.27;1736848;81;21321;-71
2021/03/15 09:27:38;;;;;;;58.10;28.55;;;;;;;6.18;76.44;98683.47;1767963;81;21297;-71
2021/03/15 09:30:26;;;;;;;52.55;26.68;;;;;;;6.13;76.60;98691.65;1761491;81;21175;-71
2021/03/15 09:32:57;;;;;;;57.73;28.62;;;;;;;6.10;76.62;98685.77;1756431;80;21182;-71
2021/03/15 09:35:39;;;;;;;56.20;27.55;;;;;;;6.19;76.39;98692.55;1752317;82;21305;-71
2021/03/15 09:38:11;;;;;;;51.58;25.90;;;;;;;6.30;76.14;98693.58;1738101;80;21165;-71
2021/03/15 09:40:49;;;;;;;63.38;29.87;;;;;;;6.23;76.24;98695.80;1742960;82;21572;-72
2021/03/15 09:43:22;;;;;;;59.98;29.02;;;;;;;6.15;76.47;98696.79;1756162;80;21115;-71
2021/03/15 09:45:58;;;;;;;53.45;27.15;;;;;;;6.04;76.71;98693.12;1761767;80;21631;-70
2021/03/15 09:48:28;;;;;;;52.00;25.57;;;;;;;6.11;76.54;98692.22;1750012;82;21221;-70
2021/03/15 09:50:58;;;;;;;61.30;30.02;;;;;;;6.23;76.26;98694.49;1760890;80;21187;-70
2021/03/15 09:53:27;;;;;;;57.43;28.55;;;;;;;6.15;76.46;98700.27;1751264;80;21305;-71
2021/03/15 09:56:11;;;;;;;;;;;;;;;6.10;76.70;98698.89;1755275;80;21162;-70
2021/03/15 09:58:41;;;;;;;53.25;26.55;;;;;;;6.10;76.75;98698.89;1754907;80;20221;-71
2021/03/15 10:01:15;;;;;;;54.08;27.60;;;;;;;6.20;76.34;98699.94;1755078;82;21315;-70
2021/03/15 10:03:58;;;;;;;63.17;30.20;;;;;;;6.13;76.44;98694.77;1753516;80;21153;-70
2021/03/15 10:06:45;;;;;;;60.40;28.87;;;;;;;6.03;76.87;98699.30;1752282;80;21280;-70
2021/03/15 10:09:31;;;;;;;60.20;28.92;;;;;;;5.96;77.22;98699.80;1752325;80;21269;-70
2021/03/15 10:12:23;;;;;;;59.67;28.65;;;;;;;6.06;77.15;98704.36;1768782;79;24367;-70
2021/03/15 10:15:00;;;;;;;55.90;28.23;;;;;;;6.13;76.89;98702.63;1728137;80;21282;-70
2021/03/15 10:17:39;;;;;;;56.42;29.07;;;;;;;6.08;77.02;98706.88;1745725;80;21171;-71
2021/03/15 10:20:33;;;;;;;51.00;25.15;;;;;;;5.99;77.13;98714.08;1723658;82;21194;-72
2021/03/15 10:23:18;;;;;;;54.55;27.73;;;;;;;5.96;77.17;98724.28;1725862;82;21620;-70
2021/03/15 10:26:00;;;;;;;53.50;27.80;;;;;;;6.12;76.91;98711.45;1696767;84;21206;-70
2021/03/15 10:28:31;;;;;;;62.27;29.60;;;;;;;6.13;76.93;98705.26;1727481;82;21336;-71
2021/03/15 10:31:09;;;;;;;59.88;29.48;;;;;;;6.04;77.10;98703.62;1725183;82;21146;-71
2021/03/15 10:33:44;;;;;;;51.83;26.23;;;;;;;5.97;77.25;98694.92;1738315;82;21143;-71
2021/03/15 10:36:12;;;;;;;;;;;;;;;5.99;77.10;98703.09;1718955;82;21131;-71
2021/03/15 10:38:40;;;;;;;53.90;27.62;;;;;;;6.10;76.89;98693.19;1710827;82;20184;-70
2021/03/15 10:41:08;;;;;;;56.33;27.42;;;;;;;5.99;77.13;98688.66;1719419;82;21173;-70
2021/03/15 10:43:35;;;;;;;48.85;25.25;;;;;;;5.90;77.32;98687.47;1692616;84;21634;-70
2021/03/15 10:46:26;;;;;;;50.30;25.08;;;;;;;5.90;77.38;98689.27;1692411;84;21626;-70
2021/03/15 10:48:56;;;;;;;52.75;26.82;;;;;;;5.99;77.27;98688.66;1681500;85;21405;-70
2021/03/15 10:51:24;;;;;;;59.38;28.25;;;;;;;5.94;77.50;98682.85;1663996;85;22488;-70
2021/03/15 10:53:55;;;;;;;51.75;25.12;;;;;;;5.87;77.71;98686.83;1660096;85;21311;-71
2021/03/15 10:56:28;;;;;;;44.65;24.45;;;;;;;5.90;77.66;98673.52;1667452;85;21181;-72
2021/03/15 10:58:57;;;;;;;58.52;29.05;;;;;;;6.01;77.38;98676.28;1635781;86;21374;-70
2021/03/15 11:01:31;;;;;;;56.45;26.95;;;;;;;5.96;77.53;98671.79;1648302;86;21146;-71
2021/03/15 11:04:10;;;;;;;51.73;26.93;;;;;;;5.87;77.78;98673.70;1620892;88;21197;-71
2021/03/15 11:06:48;;;;;;;57.83;29.10;;;;;;;5.81;78.08;98664.97;1797868;78;23432;-70
2021/03/15 11:09:21;;;;;;;48.78;24.98;;;;;;;5.81;78.07;98666.28;1764476;80;21266;-70
2021/03/15 11:11:55;;;;;;;34.43;20.23;;;;;;;5.95;77.83;98668.80;1769729;79;21352;-69
2021/03/15 11:14:26;;;;;;;34.65;19.35;;;;;;;5.90;77.83;98663.02;1794336;79;21301;-69
2021/03/15 11:17:13;;;;;;;27.25;15.43;;;;;;;5.82;77.98;98656.12;1761377;80;21189;-69
2021/03/15 11:19:52;;;;;;;28.25;15.75;;;;;;;5.82;77.89;98652.19;1737421;80;21702;-69
2021/03/15 11:22:49;;;;;;;29.98;16.23;;;;;;;5.96;77.40;98651.25;1798547;79;23045;-70
2021/03/15 11:25:18;;;;;;;27.62;15.28;;;;;;;5.82;77.55;98645.63;1746593;80;21195;-70
2021/03/15 11:27:51;;;;;;;25.17;15.07;;;;;;;5.71;77.87;98651.14;1784922;80;21738;-70
2021/03/15 11:30:26;;;;;;;31.48;19.55;;;;;;;5.70;77.94;98651.25;1786205;79;21516;-70
2021/03/15 11:33:09;;;;;;;20.50;14.03;;;;;;;5.83;77.91;98648.62;1768411;79;21608;-71
2021/03/15 11:35:40;;;;;;;24.27;15.08;;;;;;;5.82;77.99;98643.01;1702144;83;21633;-71
2021/03/15 11:38:12;;;;;;;19.60;11.80;;;;;;;5.76;78.05;98650.84;1713231;83;21718;-71
2021/03/15 11:40:44;;;;;;;16.12;11.28;;;;;;;5.76;77.98;98657.88;1726011;82;21183;-71
2021/03/15 11:43:13;;;;;;;21.48;12.53;;;;;;;5.91;77.72;98660.77;1735637;81;21285;-72
2021/03/15 11:45:42;;;;;;;17.98;11.78;;;;;;;5.94;77.66;98667.11;1730276;82;21260;-72
2021/03/15 11:48:10;;;;;;;16.05;10.30;;;;;;;5.87;77.92;98662.76;1735924;81;21163;-72
2021/03/15 11:50:48;;;;;;;15.13;9.38;;;;;;;5.82;77.97;98667.94;1731673;81;21604;-71
2021/03/15 11:53:18;;;;;;;14.45;10.28;;;;;;;5.76;77.84;98661.82;1735188;81;21595;-71
2021/03/15 11:55:46;;;;;;;17.23;11.33;;;;;;;5.79;77.71;98665.53;1744970;81;21150;-71